sensor_id;sensor_type;location;lat;lon;timestamp;temperature;humidity
10968;DHT22;5536;49.602;10.980;2022-07-19T00:00:10;19.10;99.90
10968;DHT22;5536;49.602;10.980;2022-07-19T00:02:37;19.20;99.90
10968;DHT22;5536;49.602;10.980;2022-07-19T00:05:05;19.20;99.90
10968;DHT22;5536;49.602;10.980;2022-07-19T00:07:32;19.20;99.90
10968;DHT22;5536;49.602;10.980;2022-07-19T00:09:59;19.00;99.90
10968;DHT22;5536;49.602;10.980;2022-07-19T00:12:26;19.10;99.90
10968;DHT22;5536;49.602;10.980;2022-07-19T00:14:55;19.00;99.90
10968;DHT22;5536;49.602;10.980;2022-07-19T00:17:22;19.00;99.90
10968;DHT22;5536;49.602;10.980;2022-07-19T00:19:49;18.90;99.90
10968;DHT22;5536;49.602;10.980;2022-07-19T00:22:15;18.80;99.90
10968;DHT22;5536;49.602;10.980;2022-07-19T00:24:42;18.90;99.90
10968;DHT22;5536;49.602;10.980;2022-07-19T00:27:09;18.90;99.90
10968;DHT22;5536;49.602;10.980;2022-07-19T00:29:37;18.90;99.90
10968;DHT22;5536;49.602;10.980;2022-07-19T00:32:06;19.00;99.90
10968;DHT22;5536;49.602;10.980;2022-07-19T00:34:33;19.00;99.90
10968;DHT22;5536;49.602;10.980;2022-07-19T00:37:00;19.00;99.90
10968;DHT22;5536;49.602;10.980;2022-07-19T00:39:27;18.80;99.90
10968;DHT22;5536;49.602;10.980;2022-07-19T00:41:54;18.80;99.90
10968;DHT22;5536;49.602;10.980;2022-07-19T00:44:22;18.80;99.90
10968;DHT22;5536;49.602;10.980;2022-07-19T00:46:49;18.90;99.90
10968;DHT22;5536;49.602;10.980;2022-07-19T00:49:17;19.00;99.90
10968;DHT22;5536;49.602;10.980;2022-07-19T00:51:45;19.00;99.90
10968;DHT22;5536;49.602;10.980;2022-07-19T00:54:13;19.00;99.90
10968;DHT22;5536;49.602;10.980;2022-07-19T00:56:41;19.00;99.90
10968;DHT22;5536;49.602;10.980;2022-07-19T00:59:10;19.00;99.90
10968;DHT22;5536;49.602;10.980;2022-07-19T01:01:39;18.90;99.90
10968;DHT22;5536;49.602;10.980;2022-07-19T01:04:06;19.00;99.90
10968;DHT22;5536;49.602;10.980;2022-07-19T01:06:34;19.00;99.90
10968;DHT22;5536;49.602;10.980;2022-07-19T01:09:01;18.80;99.90
10968;DHT22;5536;49.602;10.980;2022-07-19T01:11:29;18.80;99.90
10968;DHT22;5536;49.602;10.980;2022-07-19T01:13:56;18.80;99.90
10968;DHT22;5536;49.602;10.980;2022-07-19T01:16:23;18.80;99.90
10968;DHT22;5536;49.602;10.980;2022-07-19T01:18:50;18.80;99.90
10968;DHT22;5536;49.602;10.980;2022-07-19T01:21:19;18.80;99.90
10968;DHT22;5536;49.602;10.980;2022-07-19T01:23:47;18.70;99.90
10968;DHT22;5536;49.602;10.980;2022-07-19T01:26:14;18.70;99.90
10968;DHT22;5536;49.602;10.980;2022-07-19T01:28:41;18.70;99.90
10968;DHT22;5536;49.602;10.980;2022-07-19T01:31:08;18.70;99.90
10968;DHT22;5536;49.602;10.980;2022-07-19T01:33:38;18.70;99.90
10968;DHT22;5536;49.602;10.980;2022-07-19T01:36:06;18.70;99.90
10968;DHT22;5536;49.602;10.980;2022-07-19T01:38:36;18.70;99.90
10968;DHT22;5536;49.602;10.980;2022-07-19T01:41:03;18.50;99.90
10968;DHT22;5536;49.602;10.980;2022-07-19T01:43:30;18.50;99.90
10968;DHT22;5536;49.602;10.980;2022-07-19T01:45:57;18.40;99.90
10968;DHT22;5536;49.602;10.980;2022-07-19T01:48:25;18.30;99.90
10968;DHT22;5536;49.602;10.980;2022-07-19T01:50:52;18.30;99.90
10968;DHT22;5536;49.602;10.980;2022-07-19T01:53:19;18.20;99.90
10968;DHT22;5536;49.602;10.980;2022-07-19T01:55:47;18.00;99.90
10968;DHT22;5536;49.602;10.980;2022-07-19T01:58:14;18.20;99.90
10968;DHT22;5536;49.602;10.980;2022-07-19T02:00:41;18.30;99.90
10968;DHT22;5536;49.602;10.980;2022-07-19T02:03:08;18.20;99.90
10968;DHT22;5536;49.602;10.980;2022-07-19T02:05:35;18.20;99.90
10968;DHT22;5536;49.602;10.980;2022-07-19T02:08:02;18.20;99.90
10968;DHT22;5536;49.602;10.980;2022-07-19T02:10:29;18.20;99.90
10968;DHT22;5536;49.602;10.980;2022-07-19T02:12:58;18.20;99.90
10968;DHT22;5536;49.602;10.980;2022-07-19T02:15:25;18.10;99.90
10968;DHT22;5536;49.602;10.980;2022-07-19T02:17:52;18.20;99.90
10968;DHT22;5536;49.602;10.980;2022-07-19T02:20:19;18.10;99.90
10968;DHT22;5536;49.602;10.980;2022-07-19T02:22:46;18.10;99.90
10968;DHT22;5536;49.602;10.980;2022-07-19T02:25:13;18.10;99.90
10968;DHT22;5536;49.602;10.980;2022-07-19T02:27:40;18.00;99.90
10968;DHT22;5536;49.602;10.980;2022-07-19T02:30:10;18.00;99.90
10968;DHT22;5536;49.602;10.980;2022-07-19T02:32:38;17.90;99.90
10968;DHT22;5536;49.602;10.980;2022-07-19T02:35:07;17.90;99.90
10968;DHT22;5536;49.602;10.980;2022-07-19T02:37:34;18.10;99.90
10968;DHT22;5536;49.602;10.980;2022-07-19T02:40:01;18.00;99.90
10968;DHT22;5536;49.602;10.980;2022-07-19T02:42:28;17.90;99.90
10968;DHT22;5536;49.602;10.980;2022-07-19T02:44:55;17.90;99.90
10968;DHT22;5536;49.602;10.980;2022-07-19T02:47:23;17.90;99.90
10968;DHT22;5536;49.602;10.980;2022-07-19T02:49:50;17.80;99.90
10968;DHT22;5536;49.602;10.980;2022-07-19T02:52:17;17.70;99.90
10968;DHT22;5536;49.602;10.980;2022-07-19T02:54:44;17.60;99.90
10968;DHT22;5536;49.602;10.980;2022-07-19T02:57:11;17.50;99.90
10968;DHT22;5536;49.602;10.980;2022-07-19T02:59:38;17.40;99.90
10968;DHT22;5536;49.602;10.980;2022-07-19T03:02:05;17.50;99.90
10968;DHT22;5536;49.602;10.980;2022-07-19T03:04:34;17.50;99.90
10968;DHT22;5536;49.602;10.980;2022-07-19T03:07:01;17.50;99.90
10968;DHT22;5536;49.602;10.980;2022-07-19T03:09:28;17.40;99.90
10968;DHT22;5536;49.602;10.980;2022-07-19T03:11:55;17.50;99.90
10968;DHT22;5536;49.602;10.980;2022-07-19T03:14:22;17.50;99.90
10968;DHT22;5536;49.602;10.980;2022-07-19T03:16:49;17.20;99.90
10968;DHT22;5536;49.602;10.980;2022-07-19T03:19:16;17.20;99.90
10968;DHT22;5536;49.602;10.980;2022-07-19T03:21:44;17.30;99.90
10968;DHT22;5536;49.602;10.980;2022-07-19T03:24:11;17.30;99.90
10968;DHT22;5536;49.602;10.980;2022-07-19T03:26:38;17.20;99.90
10968;DHT22;5536;49.602;10.980;2022-07-19T03:29:05;17.20;99.90
10968;DHT22;5536;49.602;10.980;2022-07-19T03:31:32;17.20;99.90
10968;DHT22;5536;49.602;10.980;2022-07-19T03:33:59;17.30;99.90
10968;DHT22;5536;49.602;10.980;2022-07-19T03:36:26;17.20;99.90
10968;DHT22;5536;49.602;10.980;2022-07-19T03:38:55;17.10;99.90
10968;DHT22;5536;49.602;10.980;2022-07-19T03:41:23;17.10;99.90
10968;DHT22;5536;49.602;10.980;2022-07-19T03:43:50;17.10;99.90
10968;DHT22;5536;49.602;10.980;2022-07-19T03:46:17;17.10;99.90
10968;DHT22;5536;49.602;10.980;2022-07-19T03:48:46;17.00;99.90
10968;DHT22;5536;49.602;10.980;2022-07-19T03:51:13;17.00;99.90
10968;DHT22;5536;49.602;10.980;2022-07-19T03:53:40;17.00;99.90
10968;DHT22;5536;49.602;10.980;2022-07-19T03:56:08;17.00;99.90
10968;DHT22;5536;49.602;10.980;2022-07-19T03:58:35;17.00;99.90
10968;DHT22;5536;49.602;10.980;2022-07-19T04:01:03;17.00;99.90
10968;DHT22;5536;49.602;10.980;2022-07-19T04:03:30;17.20;99.90
10968;DHT22;5536;49.602;10.980;2022-07-19T04:05:57;17.30;99.90
10968;DHT22;5536;49.602;10.980;2022-07-19T04:08:24;17.30;99.90
10968;DHT22;5536;49.602;10.980;2022-07-19T04:10:51;17.00;99.90
10968;DHT22;5536;49.602;10.980;2022-07-19T04:13:19;17.00;99.90
10968;DHT22;5536;49.602;10.980;2022-07-19T04:15:46;17.00;99.90
10968;DHT22;5536;49.602;10.980;2022-07-19T04:18:13;17.00;99.90
10968;DHT22;5536;49.602;10.980;2022-07-19T04:20:41;17.20;99.90
10968;DHT22;5536;49.602;10.980;2022-07-19T04:23:08;17.10;99.90
10968;DHT22;5536;49.602;10.980;2022-07-19T04:25:36;17.20;99.90
10968;DHT22;5536;49.602;10.980;2022-07-19T04:28:03;17.40;99.90
10968;DHT22;5536;49.602;10.980;2022-07-19T04:30:33;17.60;99.90
10968;DHT22;5536;49.602;10.980;2022-07-19T04:33:00;17.70;99.90
10968;DHT22;5536;49.602;10.980;2022-07-19T04:35:27;17.60;99.90
10968;DHT22;5536;49.602;10.980;2022-07-19T04:37:54;17.60;99.90
10968;DHT22;5536;49.602;10.980;2022-07-19T04:40:21;17.60;99.90
10968;DHT22;5536;49.602;10.980;2022-07-19T04:42:48;17.80;99.90
10968;DHT22;5536;49.602;10.980;2022-07-19T04:45:16;17.80;99.90
10968;DHT22;5536;49.602;10.980;2022-07-19T04:47:44;17.80;99.90
10968;DHT22;5536;49.602;10.980;2022-07-19T04:50:11;17.90;99.90
10968;DHT22;5536;49.602;10.980;2022-07-19T04:52:39;18.00;99.90
10968;DHT22;5536;49.602;10.980;2022-07-19T04:55:07;18.00;99.90
10968;DHT22;5536;49.602;10.980;2022-07-19T04:57:34;18.00;99.90
10968;DHT22;5536;49.602;10.980;2022-07-19T05:00:02;17.90;99.90
10968;DHT22;5536;49.602;10.980;2022-07-19T05:02:29;17.80;99.90
10968;DHT22;5536;49.602;10.980;2022-07-19T05:04:59;17.70;99.90
10968;DHT22;5536;49.602;10.980;2022-07-19T05:07:26;17.80;99.90
10968;DHT22;5536;49.602;10.980;2022-07-19T05:09:53;17.80;99.90
10968;DHT22;5536;49.602;10.980;2022-07-19T05:12:21;17.80;99.90
10968;DHT22;5536;49.602;10.980;2022-07-19T05:14:48;18.00;99.90
10968;DHT22;5536;49.602;10.980;2022-07-19T05:17:17;18.10;99.90
10968;DHT22;5536;49.602;10.980;2022-07-19T05:19:45;18.10;99.90
10968;DHT22;5536;49.602;10.980;2022-07-19T05:22:13;18.20;99.90
10968;DHT22;5536;49.602;10.980;2022-07-19T05:24:41;18.20;99.90
10968;DHT22;5536;49.602;10.980;2022-07-19T05:27:08;18.30;99.90
10968;DHT22;5536;49.602;10.980;2022-07-19T05:29:35;18.40;99.90
10968;DHT22;5536;49.602;10.980;2022-07-19T05:32:03;18.50;99.90
10968;DHT22;5536;49.602;10.980;2022-07-19T05:34:30;18.60;99.90
10968;DHT22;5536;49.602;10.980;2022-07-19T05:36:58;18.70;99.90
10968;DHT22;5536;49.602;10.980;2022-07-19T05:39:26;18.70;99.90
10968;DHT22;5536;49.602;10.980;2022-07-19T05:41:59;18.80;99.90
10968;DHT22;5536;49.602;10.980;2022-07-19T05:44:30;18.90;99.90
10968;DHT22;5536;49.602;10.980;2022-07-19T05:46:57;18.90;99.90
10968;DHT22;5536;49.602;10.980;2022-07-19T05:49:24;19.00;99.90
10968;DHT22;5536;49.602;10.980;2022-07-19T05:51:51;19.10;99.90
10968;DHT22;5536;49.602;10.980;2022-07-19T05:54:19;19.20;99.90
10968;DHT22;5536;49.602;10.980;2022-07-19T05:56:47;19.30;99.90
10968;DHT22;5536;49.602;10.980;2022-07-19T05:59:14;19.30;99.90
10968;DHT22;5536;49.602;10.980;2022-07-19T06:01:42;19.30;99.90
10968;DHT22;5536;49.602;10.980;2022-07-19T06:04:09;19.40;99.90
10968;DHT22;5536;49.602;10.980;2022-07-19T06:06:36;19.50;99.90
10968;DHT22;5536;49.602;10.980;2022-07-19T06:09:03;19.60;99.90
10968;DHT22;5536;49.602;10.980;2022-07-19T06:11:33;19.70;99.90
10968;DHT22;5536;49.602;10.980;2022-07-19T06:14:02;19.80;99.90
10968;DHT22;5536;49.602;10.980;2022-07-19T06:16:32;19.90;99.90
10968;DHT22;5536;49.602;10.980;2022-07-19T06:18:59;20.00;99.90
10968;DHT22;5536;49.602;10.980;2022-07-19T06:21:26;20.10;99.70
10968;DHT22;5536;49.602;10.980;2022-07-19T06:23:53;20.20;99.10
10968;DHT22;5536;49.602;10.980;2022-07-19T06:26:20;20.30;98.80
10968;DHT22;5536;49.602;10.980;2022-07-19T06:28:47;20.40;98.50
10968;DHT22;5536;49.602;10.980;2022-07-19T06:31:15;20.50;98.40
10968;DHT22;5536;49.602;10.980;2022-07-19T06:33:45;20.60;98.30
10968;DHT22;5536;49.602;10.980;2022-07-19T06:36:12;20.70;98.40
10968;DHT22;5536;49.602;10.980;2022-07-19T06:38:39;20.70;97.80
10968;DHT22;5536;49.602;10.980;2022-07-19T06:41:07;20.90;98.50
10968;DHT22;5536;49.602;10.980;2022-07-19T06:43:34;21.00;97.50
10968;DHT22;5536;49.602;10.980;2022-07-19T06:46:01;21.10;96.90
10968;DHT22;5536;49.602;10.980;2022-07-19T06:48:30;21.20;96.60
10968;DHT22;5536;49.602;10.980;2022-07-19T06:50:57;21.30;96.40
10968;DHT22;5536;49.602;10.980;2022-07-19T06:53:24;21.50;95.90
10968;DHT22;5536;49.602;10.980;2022-07-19T06:55:51;21.70;95.40
10968;DHT22;5536;49.602;10.980;2022-07-19T06:58:18;21.90;94.50
10968;DHT22;5536;49.602;10.980;2022-07-19T07:00:46;22.00;94.50
10968;DHT22;5536;49.602;10.980;2022-07-19T07:03:17;22.20;93.80
10968;DHT22;5536;49.602;10.980;2022-07-19T07:05:46;22.10;93.70
10968;DHT22;5536;49.602;10.980;2022-07-19T07:08:13;22.10;93.70
10968;DHT22;5536;49.602;10.980;2022-07-19T07:10:40;22.30;93.70
10968;DHT22;5536;49.602;10.980;2022-07-19T07:13:07;22.30;93.10
10968;DHT22;5536;49.602;10.980;2022-07-19T07:15:34;22.30;92.80
10968;DHT22;5536;49.602;10.980;2022-07-19T07:18:04;22.50;92.20
10968;DHT22;5536;49.602;10.980;2022-07-19T07:20:31;22.50;91.80
10968;DHT22;5536;49.602;10.980;2022-07-19T07:23:01;22.40;91.50
10968;DHT22;5536;49.602;10.980;2022-07-19T07:25:28;22.50;91.20
10968;DHT22;5536;49.602;10.980;2022-07-19T07:27:56;22.70;91.70
10968;DHT22;5536;49.602;10.980;2022-07-19T07:30:23;22.80;91.00
10968;DHT22;5536;49.602;10.980;2022-07-19T07:32:50;22.80;90.80
10968;DHT22;5536;49.602;10.980;2022-07-19T07:35:17;22.90;90.90
10968;DHT22;5536;49.602;10.980;2022-07-19T07:37:44;23.00;90.80
10968;DHT22;5536;49.602;10.980;2022-07-19T07:40:13;23.20;89.70
10968;DHT22;5536;49.602;10.980;2022-07-19T07:42:40;23.40;88.70
10968;DHT22;5536;49.602;10.980;2022-07-19T07:45:07;23.70;83.50
10968;DHT22;5536;49.602;10.980;2022-07-19T07:47:35;23.80;83.10
10968;DHT22;5536;49.602;10.980;2022-07-19T07:50:04;23.80;84.40
10968;DHT22;5536;49.602;10.980;2022-07-19T07:52:31;24.00;78.20
10968;DHT22;5536;49.602;10.980;2022-07-19T07:54:58;24.10;77.60
10968;DHT22;5536;49.602;10.980;2022-07-19T07:57:26;24.60;74.80
10968;DHT22;5536;49.602;10.980;2022-07-19T07:59:53;24.80;71.00
10968;DHT22;5536;49.602;10.980;2022-07-19T08:02:21;25.00;84.60
10968;DHT22;5536;49.602;10.980;2022-07-19T08:04:48;24.90;81.20
10968;DHT22;5536;49.602;10.980;2022-07-19T08:07:15;25.20;52.70
10968;DHT22;5536;49.602;10.980;2022-07-19T08:09:42;25.20;1.00
10968;DHT22;5536;49.602;10.980;2022-07-19T08:12:09;25.20;1.00
10968;DHT22;5536;49.602;10.980;2022-07-19T08:14:38;25.20;1.00
10968;DHT22;5536;49.602;10.980;2022-07-19T08:17:05;25.30;1.00
10968;DHT22;5536;49.602;10.980;2022-07-19T08:19:32;25.20;1.00
10968;DHT22;5536;49.602;10.980;2022-07-19T08:21:59;25.30;1.00
10968;DHT22;5536;49.602;10.980;2022-07-19T08:24:26;25.60;1.00
10968;DHT22;5536;49.602;10.980;2022-07-19T08:26:53;25.80;1.00
10968;DHT22;5536;49.602;10.980;2022-07-19T08:29:21;26.10;1.00
10968;DHT22;5536;49.602;10.980;2022-07-19T08:31:50;26.20;1.00
10968;DHT22;5536;49.602;10.980;2022-07-19T08:34:17;26.30;1.00
10968;DHT22;5536;49.602;10.980;2022-07-19T08:36:44;26.30;1.00
10968;DHT22;5536;49.602;10.980;2022-07-19T08:39:11;26.50;1.00
10968;DHT22;5536;49.602;10.980;2022-07-19T08:41:38;26.50;1.00
10968;DHT22;5536;49.602;10.980;2022-07-19T08:44:09;26.40;1.00
10968;DHT22;5536;49.602;10.980;2022-07-19T08:46:38;26.60;1.00
10968;DHT22;5536;49.602;10.980;2022-07-19T08:49:07;26.80;1.00
10968;DHT22;5536;49.602;10.980;2022-07-19T08:51:35;26.80;1.00
10968;DHT22;5536;49.602;10.980;2022-07-19T08:54:03;26.70;1.00
10968;DHT22;5536;49.602;10.980;2022-07-19T08:56:30;26.60;1.00
10968;DHT22;5536;49.602;10.980;2022-07-19T08:59:14;26.70;1.00
10968;DHT22;5536;49.602;10.980;2022-07-19T09:01:42;26.70;1.00
10968;DHT22;5536;49.602;10.980;2022-07-19T09:04:13;26.70;1.00
10968;DHT22;5536;49.602;10.980;2022-07-19T09:06:43;26.70;1.00
10968;DHT22;5536;49.602;10.980;2022-07-19T09:09:11;27.00;1.00
10968;DHT22;5536;49.602;10.980;2022-07-19T09:11:42;27.00;1.00
10968;DHT22;5536;49.602;10.980;2022-07-19T09:14:16;27.10;1.00
10968;DHT22;5536;49.602;10.980;2022-07-19T09:17:08;27.20;1.00
10968;DHT22;5536;49.602;10.980;2022-07-19T09:19:40;27.40;1.00
10968;DHT22;5536;49.602;10.980;2022-07-19T09:22:09;27.40;1.00
10968;DHT22;5536;49.602;10.980;2022-07-19T09:24:38;27.50;1.00
10968;DHT22;5536;49.602;10.980;2022-07-19T09:27:07;27.50;1.00
10968;DHT22;5536;49.602;10.980;2022-07-19T09:29:36;27.50;1.00
10968;DHT22;5536;49.602;10.980;2022-07-19T09:32:12;27.40;1.00
10968;DHT22;5536;49.602;10.980;2022-07-19T09:34:42;27.60;1.00
10968;DHT22;5536;49.602;10.980;2022-07-19T09:37:19;27.60;1.00
10968;DHT22;5536;49.602;10.980;2022-07-19T09:39:48;27.60;1.00
10968;DHT22;5536;49.602;10.980;2022-07-19T09:42:17;27.90;1.00
10968;DHT22;5536;49.602;10.980;2022-07-19T09:44:46;28.10;1.00
10968;DHT22;5536;49.602;10.980;2022-07-19T09:47:13;28.10;1.00
10968;DHT22;5536;49.602;10.980;2022-07-19T09:49:42;28.20;1.00
10968;DHT22;5536;49.602;10.980;2022-07-19T09:52:09;28.30;1.00
10968;DHT22;5536;49.602;10.980;2022-07-19T09:54:38;28.40;1.00
10968;DHT22;5536;49.602;10.980;2022-07-19T09:57:07;28.40;1.00
10968;DHT22;5536;49.602;10.980;2022-07-19T09:59:37;28.40;1.00
10968;DHT22;5536;49.602;10.980;2022-07-19T10:02:12;28.40;1.00
10968;DHT22;5536;49.602;10.980;2022-07-19T10:04:41;28.50;1.00
10968;DHT22;5536;49.602;10.980;2022-07-19T10:07:10;28.70;1.00
10968;DHT22;5536;49.602;10.980;2022-07-19T10:09:38;28.90;1.00
10968;DHT22;5536;49.602;10.980;2022-07-19T10:12:06;29.00;1.00
10968;DHT22;5536;49.602;10.980;2022-07-19T10:14:33;29.00;1.00
10968;DHT22;5536;49.602;10.980;2022-07-19T10:17:11;29.00;1.00
10968;DHT22;5536;49.602;10.980;2022-07-19T10:19:44;29.60;1.00
10968;DHT22;5536;49.602;10.980;2022-07-19T10:22:14;29.80;1.00
10968;DHT22;5536;49.602;10.980;2022-07-19T10:24:47;29.80;1.00
10968;DHT22;5536;49.602;10.980;2022-07-19T10:27:16;29.90;1.00
10968;DHT22;5536;49.602;10.980;2022-07-19T10:29:44;30.10;1.00
10968;DHT22;5536;49.602;10.980;2022-07-19T10:32:12;30.20;1.00
10968;DHT22;5536;49.602;10.980;2022-07-19T10:34:40;30.20;1.00
10968;DHT22;5536;49.602;10.980;2022-07-19T10:37:09;30.50;1.00
10968;DHT22;5536;49.602;10.980;2022-07-19T10:39:37;30.60;1.00
10968;DHT22;5536;49.602;10.980;2022-07-19T10:42:09;30.60;1.00
10968;DHT22;5536;49.602;10.980;2022-07-19T10:47:57;31.10;1.00
10968;DHT22;5536;49.602;10.980;2022-07-19T10:50:45;31.30;1.00
10968;DHT22;5536;49.602;10.980;2022-07-19T10:56:28;31.70;1.00
10968;DHT22;5536;49.602;10.980;2022-07-19T10:58:56;31.70;1.00
10968;DHT22;5536;49.602;10.980;2022-07-19T11:01:25;31.80;1.00
10968;DHT22;5536;49.602;10.980;2022-07-19T11:03:54;31.90;1.00
10968;DHT22;5536;49.602;10.980;2022-07-19T11:06:41;31.90;1.00
10968;DHT22;5536;49.602;10.980;2022-07-19T11:09:08;32.40;1.00
10968;DHT22;5536;49.602;10.980;2022-07-19T11:11:36;32.60;1.00
10968;DHT22;5536;49.602;10.980;2022-07-19T11:14:04;33.00;1.00
10968;DHT22;5536;49.602;10.980;2022-07-19T11:16:31;33.20;1.00
10968;DHT22;5536;49.602;10.980;2022-07-19T11:19:02;33.20;1.00
10968;DHT22;5536;49.602;10.980;2022-07-19T11:21:30;33.40;1.00
10968;DHT22;5536;49.602;10.980;2022-07-19T11:23:58;33.80;1.00
10968;DHT22;5536;49.602;10.980;2022-07-19T11:26:25;34.10;1.00
10968;DHT22;5536;49.602;10.980;2022-07-19T11:28:54;34.20;1.00
10968;DHT22;5536;49.602;10.980;2022-07-19T11:31:22;34.70;1.00
10968;DHT22;5536;49.602;10.980;2022-07-19T11:33:52;34.70;1.00
10968;DHT22;5536;49.602;10.980;2022-07-19T11:36:22;35.00;1.00
10968;DHT22;5536;49.602;10.980;2022-07-19T11:38:50;35.40;1.00
10968;DHT22;5536;49.602;10.980;2022-07-19T11:41:19;35.70;1.00
10968;DHT22;5536;49.602;10.980;2022-07-19T11:43:51;35.90;1.00
10968;DHT22;5536;49.602;10.980;2022-07-19T11:46:21;36.30;1.00
10968;DHT22;5536;49.602;10.980;2022-07-19T11:48:49;36.30;1.00
10968;DHT22;5536;49.602;10.980;2022-07-19T11:51:17;36.50;1.00
10968;DHT22;5536;49.602;10.980;2022-07-19T11:53:49;36.80;1.00
10968;DHT22;5536;49.602;10.980;2022-07-19T11:56:19;37.20;1.00
10968;DHT22;5536;49.602;10.980;2022-07-19T11:58:47;37.20;1.00
10968;DHT22;5536;49.602;10.980;2022-07-19T12:01:14;37.30;1.00
10968;DHT22;5536;49.602;10.980;2022-07-19T12:03:53;37.30;1.00
10968;DHT22;5536;49.602;10.980;2022-07-19T12:06:20;37.60;1.00
10968;DHT22;5536;49.602;10.980;2022-07-19T12:09:04;37.80;1.00
10968;DHT22;5536;49.602;10.980;2022-07-19T12:11:38;38.10;1.00
10968;DHT22;5536;49.602;10.980;2022-07-19T12:14:17;38.30;1.00
10968;DHT22;5536;49.602;10.980;2022-07-19T12:16:45;38.30;1.00
10968;DHT22;5536;49.602;10.980;2022-07-19T12:19:13;38.40;1.00
10968;DHT22;5536;49.602;10.980;2022-07-19T12:21:43;38.50;1.00
10968;DHT22;5536;49.602;10.980;2022-07-19T12:24:21;38.80;1.00
10968;DHT22;5536;49.602;10.980;2022-07-19T12:27:00;38.80;1.00
10968;DHT22;5536;49.602;10.980;2022-07-19T12:29:28;39.00;1.00
10968;DHT22;5536;49.602;10.980;2022-07-19T12:31:58;39.50;1.00
10968;DHT22;5536;49.602;10.980;2022-07-19T12:34:27;39.80;1.00
10968;DHT22;5536;49.602;10.980;2022-07-19T12:36:55;39.50;1.00
10968;DHT22;5536;49.602;10.980;2022-07-19T12:39:27;39.80;1.00
10968;DHT22;5536;49.602;10.980;2022-07-19T12:41:59;39.40;1.00
10968;DHT22;5536;49.602;10.980;2022-07-19T12:44:28;39.90;1.00
10968;DHT22;5536;49.602;10.980;2022-07-19T12:46:56;40.10;1.00
10968;DHT22;5536;49.602;10.980;2022-07-19T12:49:23;39.50;1.00
10968;DHT22;5536;49.602;10.980;2022-07-19T12:51:52;39.70;1.00
10968;DHT22;5536;49.602;10.980;2022-07-19T12:54:19;39.50;1.00
10968;DHT22;5536;49.602;10.980;2022-07-19T12:56:46;39.10;1.00
10968;DHT22;5536;49.602;10.980;2022-07-19T12:59:13;39.50;1.00
10968;DHT22;5536;49.602;10.980;2022-07-19T13:01:54;39.60;1.00
10968;DHT22;5536;49.602;10.980;2022-07-19T13:04:21;40.00;1.00
10968;DHT22;5536;49.602;10.980;2022-07-19T13:06:48;40.00;1.00
10968;DHT22;5536;49.602;10.980;2022-07-19T13:09:16;40.40;1.00
10968;DHT22;5536;49.602;10.980;2022-07-19T13:11:44;40.60;1.00
10968;DHT22;5536;49.602;10.980;2022-07-19T13:14:10;40.10;1.00
10968;DHT22;5536;49.602;10.980;2022-07-19T13:16:38;40.80;1.00
10968;DHT22;5536;49.602;10.980;2022-07-19T13:19:05;40.60;1.00
10968;DHT22;5536;49.602;10.980;2022-07-19T13:21:32;41.10;1.00
10968;DHT22;5536;49.602;10.980;2022-07-19T13:23:59;41.00;1.00
10968;DHT22;5536;49.602;10.980;2022-07-19T13:26:27;40.60;1.00
10968;DHT22;5536;49.602;10.980;2022-07-19T13:28:54;40.80;1.00
10968;DHT22;5536;49.602;10.980;2022-07-19T13:31:21;40.90;1.00
10968;DHT22;5536;49.602;10.980;2022-07-19T13:33:48;41.10;1.00
10968;DHT22;5536;49.602;10.980;2022-07-19T13:36:16;41.40;1.00
10968;DHT22;5536;49.602;10.980;2022-07-19T13:38:43;41.40;1.00
10968;DHT22;5536;49.602;10.980;2022-07-19T13:41:10;41.40;1.00
10968;DHT22;5536;49.602;10.980;2022-07-19T13:43:38;40.60;1.00
10968;DHT22;5536;49.602;10.980;2022-07-19T13:46:05;40.90;1.00
10968;DHT22;5536;49.602;10.980;2022-07-19T13:48:32;40.90;1.00
10968;DHT22;5536;49.602;10.980;2022-07-19T13:50:59;40.80;1.00
10968;DHT22;5536;49.602;10.980;2022-07-19T13:53:26;41.20;1.00
10968;DHT22;5536;49.602;10.980;2022-07-19T13:55:53;41.00;1.00
10968;DHT22;5536;49.602;10.980;2022-07-19T13:58:20;41.10;1.00
10968;DHT22;5536;49.602;10.980;2022-07-19T14:00:48;40.90;1.00
10968;DHT22;5536;49.602;10.980;2022-07-19T14:03:16;41.00;1.00
10968;DHT22;5536;49.602;10.980;2022-07-19T14:05:43;40.90;1.00
10968;DHT22;5536;49.602;10.980;2022-07-19T14:08:10;41.90;1.00
10968;DHT22;5536;49.602;10.980;2022-07-19T14:10:38;42.20;1.00
10968;DHT22;5536;49.602;10.980;2022-07-19T14:13:05;42.60;1.00
10968;DHT22;5536;49.602;10.980;2022-07-19T14:15:33;42.50;1.00
10968;DHT22;5536;49.602;10.980;2022-07-19T14:18:01;42.40;1.00
10968;DHT22;5536;49.602;10.980;2022-07-19T14:20:28;41.80;1.00
10968;DHT22;5536;49.602;10.980;2022-07-19T14:22:55;41.80;1.00
10968;DHT22;5536;49.602;10.980;2022-07-19T14:25:22;41.50;1.00
10968;DHT22;5536;49.602;10.980;2022-07-19T14:27:50;41.40;1.00
10968;DHT22;5536;49.602;10.980;2022-07-19T14:30:17;42.70;1.00
10968;DHT22;5536;49.602;10.980;2022-07-19T14:32:44;42.40;1.00
10968;DHT22;5536;49.602;10.980;2022-07-19T14:35:12;42.60;1.00
10968;DHT22;5536;49.602;10.980;2022-07-19T14:37:42;42.30;1.00
10968;DHT22;5536;49.602;10.980;2022-07-19T14:40:10;42.60;1.00
10968;DHT22;5536;49.602;10.980;2022-07-19T14:42:37;42.70;1.00
10968;DHT22;5536;49.602;10.980;2022-07-19T14:45:05;42.70;1.00
10968;DHT22;5536;49.602;10.980;2022-07-19T14:47:32;42.20;1.00
10968;DHT22;5536;49.602;10.980;2022-07-19T14:49:59;42.10;1.00
10968;DHT22;5536;49.602;10.980;2022-07-19T14:52:29;42.20;1.00
10968;DHT22;5536;49.602;10.980;2022-07-19T14:54:55;42.20;1.00
10968;DHT22;5536;49.602;10.980;2022-07-19T14:57:23;41.70;1.00
10968;DHT22;5536;49.602;10.980;2022-07-19T14:59:50;42.10;1.00
10968;DHT22;5536;49.602;10.980;2022-07-19T15:02:17;42.30;1.00
10968;DHT22;5536;49.602;10.980;2022-07-19T15:04:44;42.10;1.00
10968;DHT22;5536;49.602;10.980;2022-07-19T15:07:12;42.10;1.00
10968;DHT22;5536;49.602;10.980;2022-07-19T15:09:40;41.90;1.00
10968;DHT22;5536;49.602;10.980;2022-07-19T15:12:07;41.80;1.00
10968;DHT22;5536;49.602;10.980;2022-07-19T15:14:34;41.70;1.00
10968;DHT22;5536;49.602;10.980;2022-07-19T15:17:03;40.90;1.00
10968;DHT22;5536;49.602;10.980;2022-07-19T15:19:30;41.20;1.00
10968;DHT22;5536;49.602;10.980;2022-07-19T15:21:57;41.20;1.00
10968;DHT22;5536;49.602;10.980;2022-07-19T15:24:24;40.80;1.00
10968;DHT22;5536;49.602;10.980;2022-07-19T15:26:53;41.40;1.00
10968;DHT22;5536;49.602;10.980;2022-07-19T15:29:20;40.70;1.00
10968;DHT22;5536;49.602;10.980;2022-07-19T15:31:47;41.10;1.00
10968;DHT22;5536;49.602;10.980;2022-07-19T15:34:14;41.40;1.00
10968;DHT22;5536;49.602;10.980;2022-07-19T15:36:41;41.80;1.00
10968;DHT22;5536;49.602;10.980;2022-07-19T15:39:08;41.80;1.00
10968;DHT22;5536;49.602;10.980;2022-07-19T15:41:35;41.70;1.00
10968;DHT22;5536;49.602;10.980;2022-07-19T15:44:04;41.80;1.00
10968;DHT22;5536;49.602;10.980;2022-07-19T15:46:31;41.40;1.00
10968;DHT22;5536;49.602;10.980;2022-07-19T15:48:59;40.70;1.00